Have a Safe July 4th! 

Flight Track Log - Related Links

Times and Time Zones

All times are in EDT time to prevent confusion due to time zone crossing. See the EGF3919 flight status page for this flight to view local times or setup timezone preferences in your user account.

Time Position Orientation Groundspeed Altitude Reporting Facility
EDT Latitude Longitude Course Direction KTS MPH feet Rate Location/Type
Sat 04:02:15 PM 34.7505 -92.2184 130° Southeast  Level FlightAware Approximate
Sat 04:02:52 PM 34.7372 -92.1994 24° Northeast 158 182 1,100  Level Memphis Center
Sat 04:04:22 PM 34.8172 -92.1556 19° North 227 261 4,400 2,491 Climbing Memphis Center
Sat 04:05:43 PM 34.9075 -92.1169 13° North 247 284 8,200 2,681 Climbing Memphis Center
Sat 04:06:43 PM 34.9722 -92.0981 10° North 247 284 10,700 2,050 Climbing Memphis Center
Sat 04:07:43 PM 35.0497 -92.0819 353° North 247 284 12,300 1,600 Climbing Memphis Center
Sat 04:08:43 PM 35.1289 -92.0936 356° North 267 307 13,900 1,600 Climbing Memphis Center
Sat 04:09:43 PM 35.2164 -92.1006 14° North 292 336 15,500 1,600 Climbing Memphis Center
Sat 04:10:43 PM 35.3044 -92.0744 16° North 308 354 17,100 1,700 Climbing Memphis Center
Sat 04:11:43 PM 35.3944 -92.0433 14° North 321 369 18,900 2,200 Climbing Memphis Center
Sat 04:12:43 PM 35.4825 -92.0169 16° North 321 369 21,500 2,300 Climbing Memphis Center
Sat 04:13:43 PM 35.5661 -91.9881 14° North 315 362 23,500 1,950 Climbing Memphis Center
Sat 04:14:43 PM 35.6519 -91.9614 13° North 315 362 25,400 1,950 Climbing Memphis Center
Sat 04:15:43 PM 35.7378 -91.9375 16° North 315 362 27,400 2,000 Climbing Memphis Center
Sat 04:16:43 PM 35.8153 -91.9108 13° North 304 350 29,400 2,000 Climbing Memphis Center
Sat 04:17:43 PM 35.8928 -91.8894 15° North 293 337 31,400 1,650 Climbing Memphis Center
Sat 04:18:43 PM 35.9597 -91.8675 14° North 282 325 32,700 1,150 Climbing Memphis Center
Sat 04:19:43 PM 36.0372 -91.8433 14° North 275 316 33,700 1,000 Climbing Memphis Center
Sat 04:20:43 PM 36.1147 -91.8189 14° North 285 328 34,700 1,000 Climbing Memphis Center
Sat 04:21:43 PM 36.2025 -91.7922 16° North 300 345 35,700 950 Climbing Memphis Center
Sat 04:22:43 PM 36.2989 -91.7578 14° North 315 362 36,600 650 Climbing Memphis Center
Sat 04:23:43 PM 36.3719 -91.7358 13° North 315 362 37,000 200 Climbing Memphis Center
Sat 04:24:43 PM 36.4642 -91.7092 15° North 320 368 37,000  Level Memphis Center
Sat 04:26:30 PM 36.6625 -91.6450 14° North 376 433 37,000  Level Kansas City Center
Sat 04:27:30 PM 36.7722 -91.6097 15° North 394 453 37,000  Level Kansas City Center
Sat 04:28:30 PM 36.8778 -91.5747 14° North 394 453 37,000  Level Kansas City Center
Sat 04:29:30 PM 36.9833 -91.5419 15° North 394 453 37,000  Level Kansas City Center
Sat 04:30:30 PM 37.0889 -91.5067 15° North 389 448 37,000  Level Kansas City Center
Sat 04:31:30 PM 37.1883 -91.4739 14° North 384 442 37,000  Level Kansas City Center
Sat 04:32:30 PM 37.2917 -91.4411 15° North 384 442 37,000  Level Kansas City Center
Sat 04:33:30 PM 37.3972 -91.4056 15° North 384 442 37,000  Level Kansas City Center
Sat 04:34:30 PM 37.4964 -91.3728 14° North 374 430 37,000  Level Kansas City Center
Sat 04:35:30 PM 37.6019 -91.3394 15° North 374 430 37,000  Level Kansas City Center
Sat 04:36:30 PM 37.7053 -91.3036 15° North 374 430 37,000  Level Kansas City Center
Sat 04:37:30 PM 37.8067 -91.2703 13° North 374 430 37,000  Level Kansas City Center
Sat 04:38:30 PM 37.9081 -91.2397 17° North 374 430 37,000  Level Kansas City Center
Sat 04:39:30 PM 38.0069 -91.2011 13° North 374 430 37,000  Level Kansas City Center
Sat 04:40:30 PM 38.1147 -91.1700 15° North 379 436 37,000  Level Kansas City Center
Sat 04:41:30 PM 38.2033 -91.1394 14° North 374 430 37,000  Level Kansas City Center
Sat 04:42:30 PM 38.3089 -91.1056 15° North 379 436 37,000  Level Kansas City Center
Sat 04:43:30 PM 38.4100 -91.0717 15° North 379 436 37,000  Level Kansas City Center
Sat 04:44:30 PM 38.5217 -91.0322 22° Northeast 374 430 37,000  Level Kansas City Center
Sat 04:45:30 PM 38.6139 -90.9853 22° Northeast 377 434 37,000  Level Kansas City Center
Sat 04:46:30 PM 38.7292 -90.9264 23° Northeast 389 448 37,000  Level Kansas City Center
Sat 04:47:30 PM 38.8256 -90.8739 23° Northeast 404 465 37,000 -300 Level Kansas City Center
Sat 04:48:30 PM 38.9444 -90.8092 21° North 414 476 36,400 -800 Descending Kansas City Center
Sat 04:49:30 PM 39.0511 -90.7556 22° Northeast 414 476 35,400 -1,000 Descending Kansas City Center
Sat 04:50:30 PM 39.1456 -90.7053 23° Northeast 408 470 34,400 -1,050 Descending Kansas City Center
Sat 04:51:30 PM 39.2581 -90.6431 North 408 470 33,300 -700 Descending Kansas City Center
Sat 04:52:30 PM 39.3472 -90.6247 348° North 419 482 33,000 -150 Descending Kansas City Center
Sat 04:53:30 PM 39.4544 -90.6539 348° North 371 427 33,000  Level Kansas City Center
Sat 04:54:30 PM 39.5469 -90.6786 352° North 354 407 33,000  Level Kansas City Center
Sat 04:55:30 PM 39.6475 -90.6975 20° North 349 402 33,000  Level Kansas City Center
Sat 04:56:30 PM 39.7522 -90.6486 32° Northeast 366 421 33,000  Level Kansas City Center
Sat 04:58:02 PM 39.9075 -90.5244 29° Northeast 411 473 33,000  Level Chicago Center
Sat 04:59:02 PM 40.0106 -90.4506 30° Northeast 423 487 33,000  Level Chicago Center
Sat 05:00:02 PM 40.1133 -90.3733 29° Northeast 429 494 33,000  Level Chicago Center
Sat 05:01:02 PM 40.2161 -90.2989 29° Northeast 429 494 33,000  Level Chicago Center
Sat 05:02:02 PM 40.3064 -90.2319 29° Northeast 423 487 33,000  Level Chicago Center
Sat 05:03:02 PM 40.4089 -90.1569 29° Northeast 423 487 33,000  Level Chicago Center
Sat 05:04:02 PM 40.5117 -90.0819 32° Northeast 423 487 33,000  Level Chicago Center
Sat 05:05:02 PM 40.6103 -90.0008 28° Northeast 423 487 33,000 -350 Level Chicago Center
Sat 05:06:02 PM 40.7169 -89.9253 30° Northeast 423 487 32,300 -1,350 Descending Chicago Center
Sat 05:07:02 PM 40.8194 -89.8467 30° Northeast 423 487 30,300 -2,000 Descending Chicago Center
Sat 05:08:02 PM 40.9219 -89.7675 29° Northeast 423 487 28,300 -2,100 Descending Chicago Center
Sat 05:09:02 PM 41.0408 -89.6803 30° Northeast 423 487 26,100 -1,900 Descending Chicago Center
Sat 05:10:02 PM 41.1453 -89.6008 56° Northeast 429 494 24,500 -1,950 Descending Chicago Center
Sat 05:11:02 PM 41.2164 -89.4631 65° Northeast 449 517 22,200 -2,350 Descending Chicago Center
Sat 05:12:02 PM 41.2686 -89.3167 62° Northeast 444 511 19,800 -2,400 Descending Chicago Center
Sat 05:13:02 PM 41.3206 -89.1869 60° Northeast 419 482 17,400 -2,350 Descending Chicago Center
Sat 05:14:02 PM 41.3744 -89.0622 62° Northeast 397 457 15,100 -2,200 Descending Chicago Center
Sat 05:15:02 PM 41.4222 -88.9400 63° Northeast 378 435 13,000 -1,850 Descending Chicago Center
Sat 05:16:02 PM 41.4675 -88.8233 61° Northeast 372 428 11,400 -1,000 Descending Chicago Center
Sat 05:17:02 PM 41.5108 -88.7178 63° Northeast 350 403 11,000 -200 Descending Chicago Center
Sat 05:18:02 PM 41.5497 -88.6175 64° Northeast 312 359 11,000 -50 Level Chicago Center
Sat 05:19:02 PM 41.5867 -88.5169 66° East 296 341 10,900 -500 Descending Chicago Center
Sat 05:20:02 PM 41.6192 -88.4194 66° East 290 334 10,000 -850 Descending Chicago Center
Sat 05:21:02 PM 41.6456 -88.3411 66° East 285 328 9,200 -950 Descending Chicago Center
Sat 05:22:02 PM 41.6800 -88.2378 51° Northeast 280 322 8,100 -750 Descending Chicago Center
Sat 05:23:02 PM 41.7211 -88.1703 37° Northeast 257 296 7,700 -750 Descending Chicago Center
Sat 05:24:02 PM 41.7686 -88.1222 42° Northeast 225 259 6,600 -1,350 Descending Chicago Center
Sat 05:25:02 PM 41.8036 -88.0797 42° Northeast 202 232 5,000 -1,600 Descending Chicago Center

Login

Don't have an account? Register now (free) for customized features, flight alerts, and more!